Time;durP1;ratioP1;P1;durP2;ratioP2;P2;SDS_P1;SDS_P2;PMS_P1;PMS_P2;Temp;Humidity;BMP_temperature;BMP_pressure;BME280_temperature;BME280_humidity;BME280_pressure;Samples;Min_cycle;Max_cycle;Signal;HPM_P1;HPM_P2
2022/01/24 00:01:55;;;;;;;3.03;2.83;;;9.20;98.20;;;;;;5044127;28;20416;-70
2022/01/24 00:04:21;;;;;;;3.20;3.00;;;9.30;98.40;;;;;;5052374;28;20458;-69
2022/01/24 00:06:48;;;;;;;2.70;2.60;;;9.30;98.40;;;;;;5051585;28;20496;-69
2022/01/24 00:09:14;;;;;;;3.20;3.10;;;9.30;98.50;;;;;;5052246;28;20431;-70
2022/01/24 00:27:23;;;;;;;3.30;3.10;;;9.20;98.50;;;;;;5072144;28;20446;-71
2022/01/24 00:29:48;;;;;;;3.53;3.43;;;9.30;98.40;;;;;;5073081;28;20502;-71
2022/01/24 00:32:14;;;;;;;3.27;3.07;;;9.20;98.30;;;;;;5071804;28;20510;-73
2022/01/24 00:34:40;;;;;;;4.50;4.30;;;9.30;98.50;;;;;;5068507;28;20424;-71
2022/01/24 00:37:06;;;;;;;3.73;3.43;;;9.30;98.40;;;;;;5052568;28;20420;-71
2022/01/24 00:39:32;;;;;;;4.47;4.10;;;9.40;98.70;;;;;;5051962;28;20412;-71
2022/01/24 00:42:26;;;;;;;3.93;3.63;;;9.40;98.80;;;;;;5052469;28;20961;-70
2022/01/24 00:45:06;;;;;;;3.00;2.87;;;9.40;98.50;;;;;;5058973;28;20420;-71
2022/01/24 00:53:59;;;;;;;3.60;3.40;;;9.50;98.60;;;;;;5052692;28;20844;-70
2022/01/24 00:56:06;;;;;;;3.50;3.30;;;9.50;98.50;;;;;;5069844;28;20427;-71
2022/01/24 00:58:32;;;;;;;2.63;2.53;;;9.40;98.70;;;;;;5071437;28;20480;-71
2022/01/24 01:00:58;;;;;;;3.40;3.23;;;9.50;98.40;;;;;;5072251;28;20411;-71
2022/01/24 01:03:24;;;;;;;2.43;2.33;;;9.50;98.80;;;;;;5071263;28;20955;-72
2022/01/24 01:06:07;;;;;;;3.70;3.50;;;9.50;99.30;;;;;;5072290;28;20202;-71
2022/01/24 01:19:35;;;;;;;3.10;2.93;;;9.20;99.00;;;;;;5053318;28;20482;-71
2022/01/24 01:22:01;;;;;;;3.57;3.37;;;9.30;98.90;;;;;;5058358;28;20795;-71
2022/01/24 01:24:29;;;;;;;3.10;2.90;;;9.30;98.80;;;;;;5048758;28;20424;-71
2022/01/24 01:27:04;;;;;;;3.17;2.97;;;9.40;98.60;;;;;;5034431;28;20210;-71
2022/01/24 01:29:43;;;;;;;3.23;3.07;;;9.40;98.70;;;;;;5042606;28;20779;-71
2022/01/24 01:32:21;;;;;;;2.60;2.50;;;9.30;98.50;;;;;;5032006;28;20797;-71
2022/01/24 01:35:07;;;;;;;2.70;2.60;;;9.30;98.60;;;;;;5032567;28;20451;-71
2022/01/24 01:40:38;;;;;;;2.20;2.10;;;9.30;98.60;;;;;;5032096;28;20493;-71
2022/01/24 01:57:19;;;;;;;2.70;2.50;;;9.30;98.80;;;;;;4970579;28;20917;-74
2022/01/24 01:59:45;;;;;;;2.53;2.37;;;9.20;98.90;;;;;;5020934;28;20513;-73
2022/01/24 02:02:11;;;;;;;2.57;2.47;;;9.30;98.90;;;;;;5032170;28;20879;-72
2022/01/24 02:04:39;;;;;;;2.90;2.80;;;9.30;98.70;;;;;;5045035;28;20507;-73
2022/01/24 02:07:13;;;;;;;2.53;2.43;;;9.30;98.70;;;;;;5051561;28;20474;-72
2022/01/24 02:09:45;;;;;;;2.70;2.60;;;9.30;98.50;;;;;;5033185;28;20477;-73
2022/01/24 02:12:12;;;;;;;2.57;2.47;;;9.30;98.40;;;;;;5051720;28;20401;-72
2022/01/24 02:14:44;;;;;;;2.80;2.70;;;9.30;98.60;;;;;;5050846;28;20508;-73
2022/01/24 02:17:16;;;;;;;2.80;2.70;;;9.30;98.70;;;;;;5043698;28;20807;-72
2022/01/24 02:22:41;;;;;;;2.97;2.70;;;9.20;98.90;;;;;;5035441;28;20959;-73
2022/01/24 02:25:11;;;;;;;2.90;2.70;;;9.20;98.80;;;;;;5035933;28;20527;-72
2022/01/24 02:27:45;;;;;;;2.50;2.40;;;9.20;98.90;;;;;;5034362;28;20451;-72
2022/01/24 02:30:27;;;;;;;2.97;2.77;;;9.30;99.00;;;;;;5037508;28;20483;-72
2022/01/24 02:32:55;;;;;;;3.23;3.03;;;9.30;99.00;;;;;;5055529;28;20904;-72
2022/01/24 02:35:21;;;;;;;3.00;2.83;;;9.20;99.20;;;;;;5020061;28;20420;-74
2022/01/24 02:37:46;;;;;;;3.10;3.00;;;9.20;99.20;;;;;;5055303;28;20394;-73
2022/01/24 02:40:16;;;;;;;3.80;3.60;;;9.20;98.90;;;;;;5048249;28;20269;-72
2022/01/24 02:48:27;;;;;;;3.20;3.00;;;9.20;99.30;;;;;;5041016;28;20448;-72
2022/01/24 02:53:48;;;;;;;3.20;3.00;;;9.00;99.30;;;;;;5038782;28;20416;-72
2022/01/24 02:56:14;;;;;;;3.20;3.10;;;9.00;99.40;;;;;;5054733;28;20930;-72
2022/01/24 02:58:40;;;;;;;3.60;3.40;;;9.10;99.30;;;;;;5053895;28;20405;-73
2022/01/24 03:01:07;;;;;;;3.30;3.10;;;9.10;99.20;;;;;;5054673;28;20174;-73
2022/01/24 03:03:34;;;;;;;3.00;2.90;;;9.00;99.20;;;;;;5027574;28;20178;-73
2022/01/24 03:06:00;;;;;;;3.57;3.30;;;9.00;99.30;;;;;;5034503;28;20405;-72
2022/01/24 03:08:25;;;;;;;2.87;2.70;;;9.00;99.50;;;;;;5033973;28;20448;-73
2022/01/24 03:10:53;;;;;;;3.10;3.00;;;9.10;99.50;;;;;;5034322;28;20432;-73
2022/01/24 03:15:53;;;;;;;3.03;2.93;;;9.10;99.40;;;;;;5035077;28;20511;-73
2022/01/24 03:18:20;;;;;;;3.07;2.97;;;9.10;99.40;;;;;;5049697;28;20435;-73
2022/01/24 03:20:46;;;;;;;3.33;3.13;;;9.10;99.40;;;;;;5052967;28;20466;-72
2022/01/24 03:23:13;;;;;;;3.67;3.33;;;9.20;99.00;;;;;;5054100;28;20471;-73
2022/01/24 03:25:40;;;;;;;3.13;3.03;;;9.20;98.70;;;;;;5039114;28;20457;-73
2022/01/24 03:28:07;;;;;;;3.10;3.00;;;9.20;98.80;;;;;;5016522;28;20460;-72
2022/01/24 03:30:33;;;;;;;2.90;2.80;;;9.20;98.60;;;;;;5015624;28;20422;-73
2022/01/24 03:33:00;;;;;;;3.10;2.90;;;9.20;98.60;;;;;;5034422;28;20779;-73
2022/01/24 03:35:26;;;;;;;3.10;3.00;;;9.10;98.60;;;;;;5033765;28;20479;-73
2022/01/24 03:37:52;;;;;;;3.10;3.00;;;9.10;98.80;;;;;;5034089;28;20890;-73
2022/01/24 03:40:18;;;;;;;2.97;2.80;;;9.20;99.00;;;;;;5034002;28;20504;-73
2022/01/24 03:42:43;;;;;;;3.10;2.90;;;9.20;99.00;;;;;;5020582;28;20512;-73
2022/01/24 03:45:11;;;;;;;3.50;3.30;;;9.20;99.00;;;;;;5033548;28;20189;-72
2022/01/24 03:50:07;;;;;;;3.13;2.93;;;9.30;98.70;;;;;;5039541;28;20901;-72
2022/01/24 03:52:33;;;;;;;2.77;2.67;;;9.10;98.60;;;;;;5015194;28;20425;-72
2022/01/24 03:55:00;;;;;;;3.30;3.10;;;9.20;98.80;;;;;;5033785;28;20435;-72
2022/01/24 03:57:26;;;;;;;2.90;2.70;;;9.20;99.00;;;;;;5032907;28;20424;-74
2022/01/24 03:59:52;;;;;;;2.97;2.80;;;9.20;99.10;;;;;;5033561;28;20424;-73
2022/01/24 04:02:21;;;;;;;3.27;3.07;;;9.30;99.10;;;;;;5037442;28;20424;-74
2022/01/24 04:04:47;;;;;;;3.10;2.83;;;9.30;99.10;;;;;;5040339;28;20429;-74
2022/01/24 04:07:13;;;;;;;3.20;3.00;;;9.30;99.10;;;;;;5034186;28;20499;-72
2022/01/24 04:09:41;;;;;;;2.70;2.60;;;9.30;99.00;;;;;;5047629;28;20427;-73
2022/01/24 04:12:08;;;;;;;3.63;3.33;;;9.30;98.90;;;;;;5051594;28;20423;-73
2022/01/24 04:17:23;;;;;;;3.10;3.00;;;9.30;98.90;;;;;;5038288;28;20520;-72
2022/01/24 04:22:30;;;;;;;3.30;3.10;;;9.20;98.90;;;;;;5041117;28;20454;-77
2022/01/24 04:25:02;;;;;;;3.10;2.90;;;9.20;98.90;;;;;;5040490;28;20408;-77
2022/01/24 04:27:29;;;;;;;3.10;3.00;;;9.20;98.80;;;;;;5032322;28;20566;-73
2022/01/24 04:29:56;;;;;;;3.30;3.10;;;9.20;98.70;;;;;;5041299;28;20428;-78
2022/01/24 04:32:22;;;;;;;3.40;3.20;;;9.30;98.40;;;;;;5051385;28;20415;-76
2022/01/24 04:34:48;;;;;;;4.40;3.90;;;9.20;98.20;;;;;;5025283;28;20417;-77
2022/01/24 04:37:15;;;;;;;4.60;4.40;;;8.80;98.70;;;;;;5033672;28;20432;-71
2022/01/24 04:39:43;;;;;;;4.33;4.10;;;8.70;99.50;;;;;;5031715;28;20445;-71
2022/01/24 04:42:14;;;;;;;4.93;4.53;;;8.90;99.60;;;;;;5032753;28;20423;-71
2022/01/24 04:53:08;;;;;;;3.63;3.43;;;8.90;99.30;;;;;;5032460;28;20429;-71
2022/01/24 04:55:34;;;;;;;3.33;3.13;;;8.90;99.50;;;;;;5031886;28;20453;-71
2022/01/24 04:57:59;;;;;;;2.77;2.67;;;8.90;99.50;;;;;;5049187;28;20420;-71
2022/01/24 05:00:25;;;;;;;3.20;3.00;;;8.90;99.20;;;;;;5052850;28;20640;-74
2022/01/24 05:02:51;;;;;;;3.60;3.30;;;8.90;99.30;;;;;;5051817;28;20173;-71
2022/01/24 05:05:21;;;;;;;3.80;3.50;;;8.90;99.30;;;;;;5034961;28;20186;-71
2022/01/24 05:07:49;;;;;;;3.50;3.30;;;8.90;99.30;;;;;;5051549;28;20840;-71
2022/01/24 05:10:34;;;;;;;4.30;3.83;;;9.00;99.20;;;;;;5034464;28;20424;-71
2022/01/24 05:21:35;;;;;;;4.23;3.93;;;9.20;99.80;;;;;;5051875;28;20506;-70
2022/01/24 05:24:01;;;;;;;3.93;3.73;;;9.20;99.60;;;;;;5017980;28;20772;-70
2022/01/24 05:26:26;;;;;;;4.07;3.87;;;9.30;99.60;;;;;;5051405;28;20551;-70
2022/01/24 05:28:52;;;;;;;4.07;3.87;;;9.20;99.60;;;;;;5051638;28;20184;-70
2022/01/24 05:31:18;;;;;;;3.20;3.10;;;9.20;99.50;;;;;;5052383;28;20174;-70
2022/01/24 05:33:43;;;;;;;4.03;3.83;;;9.20;99.60;;;;;;5051221;28;20615;-70
2022/01/24 05:36:09;;;;;;;4.20;3.90;;;9.20;99.20;;;;;;5034432;28;20417;-70
2022/01/24 05:38:35;;;;;;;4.00;3.80;;;8.90;99.10;;;;;;5051458;28;20243;-69
2022/01/24 05:41:01;;;;;;;4.10;3.70;;;9.20;99.00;;;;;;5051947;28;20618;-69
2022/01/24 05:43:27;;;;;;;3.77;3.47;;;9.20;99.40;;;;;;5051769;28;20239;-69
2022/01/24 05:45:52;;;;;;;4.10;3.90;;;9.20;99.30;;;;;;5050993;28;20503;-69
2022/01/24 05:48:18;;;;;;;3.67;3.47;;;9.20;99.40;;;;;;5052308;28;20269;-70
2022/01/24 05:50:44;;;;;;;4.53;4.13;;;9.20;99.80;;;;;;5054378;28;20178;-69
2022/01/24 05:53:10;;;;;;;4.67;4.37;;;9.20;99.90;;;;;;5047385;28;20273;-70
2022/01/24 05:55:36;;;;;;;3.73;3.53;;;9.30;99.80;;;;;;5034902;28;20190;-70
2022/01/24 05:58:01;;;;;;;4.30;3.90;;;9.20;99.00;;;;;;5036006;28;20425;-69
2022/01/24 06:00:27;;;;;;;4.43;4.13;;;9.20;99.10;;;;;;5036972;28;20174;-70
2022/01/24 06:02:53;;;;;;;4.60;4.20;;;9.20;99.10;;;;;;5054205;28;20180;-69
2022/01/24 06:05:20;;;;;;;4.70;4.37;;;9.30;99.00;;;;;;5037369;28;20778;-69
2022/01/24 06:07:47;;;;;;;5.53;5.10;;;9.40;98.90;;;;;;5054561;28;20503;-70
2022/01/24 06:10:13;;;;;;;4.37;4.07;;;9.30;98.40;;;;;;5037964;28;20408;-69
2022/01/24 06:12:38;;;;;;;5.30;4.90;;;9.30;98.50;;;;;;5054437;28;20428;-70
2022/01/24 06:15:05;;;;;;;5.73;5.33;;;9.30;98.50;;;;;;5055530;28;20516;-69
2022/01/24 06:17:31;;;;;;;5.20;4.80;;;9.20;98.40;;;;;;5037786;28;20264;-75
2022/01/24 06:19:56;;;;;;;5.70;5.20;;;9.20;98.30;;;;;;5055147;28;20959;-70
2022/01/24 06:22:22;;;;;;;4.83;4.53;;;9.20;98.30;;;;;;5054148;28;20263;-69
2022/01/24 06:24:48;;;;;;;4.87;4.57;;;9.20;98.20;;;;;;5036333;28;20183;-70
2022/01/24 06:27:13;;;;;;;4.40;4.20;;;9.30;98.30;;;;;;5054670;28;20305;-71
2022/01/24 06:29:39;;;;;;;4.50;4.20;;;9.30;98.20;;;;;;5054093;28;20213;-70
2022/01/24 06:32:05;;;;;;;4.43;4.13;;;9.20;98.30;;;;;;5016543;28;20269;-70
2022/01/24 06:34:31;;;;;;;5.07;4.77;;;9.30;98.60;;;;;;5017546;28;20204;-73
2022/01/24 06:36:57;;;;;;;5.67;5.10;;;9.30;98.80;;;;;;5043336;28;20423;-70
2022/01/24 06:39:22;;;;;;;4.30;4.07;;;9.30;98.80;;;;;;5040966;28;20204;-69
2022/01/24 06:42:06;;;;;;;5.03;4.70;;;9.20;98.60;;;;;;5034098;28;20175;-70
2022/01/24 06:44:31;;;;;;;6.43;5.80;;;9.20;98.40;;;;;;5000853;28;20210;-70
2022/01/24 06:46:57;;;;;;;5.30;5.00;;;9.20;98.40;;;;;;5033891;28;20489;-70
2022/01/24 06:49:23;;;;;;;4.73;4.50;;;9.20;98.60;;;;;;5034879;28;20181;-70
2022/01/24 06:51:48;;;;;;;5.30;4.90;;;9.30;98.30;;;;;;5034375;28;20646;-72
2022/01/24 06:54:20;;;;;;;5.30;5.00;;;9.20;98.20;;;;;;5034643;28;20189;-71
2022/01/24 06:56:46;;;;;;;5.20;4.87;;;9.20;98.50;;;;;;5034026;28;20165;-72
2022/01/24 06:59:12;;;;;;;5.43;5.13;;;9.20;98.70;;;;;;5037518;28;20428;-70
2022/01/24 07:01:38;;;;;;;5.87;5.47;;;9.10;98.50;;;;;;5038373;28;20174;-72
2022/01/24 07:04:04;;;;;;;5.40;5.10;;;9.20;98.60;;;;;;5034694;28;20224;-71
2022/01/24 07:06:29;;;;;;;6.30;6.00;;;9.20;98.50;;;;;;5016497;28;20574;-71
2022/01/24 07:08:55;;;;;;;6.57;6.00;;;9.20;98.50;;;;;;5033586;28;20420;-71
2022/01/24 07:11:21;;;;;;;6.63;6.20;;;9.20;98.60;;;;;;5037572;28;20211;-71
2022/01/24 07:13:47;;;;;;;6.00;5.60;;;9.20;98.70;;;;;;5015925;28;20189;-71
2022/01/24 07:16:13;;;;;;;6.50;6.10;;;9.30;98.70;;;;;;5047028;28;20182;-73
2022/01/24 07:19:03;;;;;;;6.00;5.50;;;9.20;98.40;;;;;;5052124;28;20208;-71
2022/01/24 07:21:25;;;;;;;5.10;4.70;;;9.20;98.60;;;;;;5044566;28;20486;-71
2022/01/24 07:23:51;;;;;;;6.30;5.90;;;9.30;98.80;;;;;;5034549;28;20440;-71
2022/01/24 07:26:17;;;;;;;6.70;6.20;;;9.10;98.60;;;;;;5037248;28;20556;-73
2022/01/24 07:28:44;;;;;;;6.03;5.60;;;9.10;98.80;;;;;;5038524;28;20563;-71
2022/01/24 07:31:11;;;;;;;6.10;5.47;;;9.10;99.00;;;;;;5046018;28;20431;-72
2022/01/24 07:33:37;;;;;;;6.53;6.10;;;9.20;99.30;;;;;;5037700;28;20512;-71
2022/01/24 07:36:03;;;;;;;6.43;6.03;;;9.10;99.00;;;;;;5039588;28;20416;-72
2022/01/24 07:38:29;;;;;;;6.23;5.73;;;9.20;98.60;;;;;;5051292;28;20928;-72
2022/01/24 07:40:56;;;;;;;7.40;6.80;;;9.10;98.70;;;;;;5043415;28;20497;-71
2022/01/24 07:43:22;;;;;;;6.53;6.00;;;9.20;98.70;;;;;;5019616;28;20178;-72
2022/01/24 07:45:49;;;;;;;7.50;6.70;;;9.10;98.50;;;;;;5033075;28;20405;-72
2022/01/24 07:48:16;;;;;;;7.17;6.67;;;9.00;98.60;;;;;;5033861;28;20820;-72
2022/01/24 07:50:46;;;;;;;7.07;6.57;;;8.90;99.20;;;;;;5033471;28;20852;-72
2022/01/24 07:53:13;;;;;;;7.03;6.63;;;8.90;99.50;;;;;;5034129;28;20440;-72
2022/01/24 07:55:39;;;;;;;7.47;6.90;;;8.90;99.60;;;;;;5033437;28;20413;-72
2022/01/24 07:58:06;;;;;;;7.70;7.00;;;9.00;99.50;;;;;;5045584;28;20437;-72
2022/01/24 08:00:32;;;;;;;7.37;6.87;;;9.00;99.50;;;;;;5036410;28;20758;-72
2022/01/24 08:02:58;;;;;;;6.73;6.33;;;9.00;99.50;;;;;;5052981;28;20415;-72
2022/01/24 08:05:24;;;;;;;7.27;6.60;;;9.00;99.50;;;;;;5054009;28;20415;-72
2022/01/24 08:07:50;;;;;;;7.47;6.87;;;8.90;99.40;;;;;;5053134;28;20574;-72
2022/01/24 08:10:16;;;;;;;8.00;7.20;;;8.80;99.70;;;;;;5053721;28;20444;-72
2022/01/24 08:12:43;;;;;;;7.80;7.20;;;8.60;99.90;;;;;;5052062;28;20260;-71
2022/01/24 08:15:14;;;;;;;7.40;6.70;;;8.50;99.90;;;;;;5053514;28;20193;-72
2022/01/24 08:17:43;;;;;;;7.47;6.87;;;8.40;99.90;;;;;;5051757;28;20400;-73
2022/01/24 08:20:11;;;;;;;8.37;7.67;;;8.40;99.90;;;;;;5034293;28;20483;-72
2022/01/24 08:22:37;;;;;;;8.50;7.90;;;8.50;99.90;;;;;;5041690;28;20871;-75
2022/01/24 08:25:04;;;;;;;9.10;8.50;;;8.90;99.90;;;;;;5034338;28;20526;-75
2022/01/24 08:27:35;;;;;;;8.03;7.33;;;9.40;99.90;;;;;;5033914;28;20453;-75
2022/01/24 08:30:06;;;;;;;8.23;7.73;;;10.00;99.90;;;;;;5015156;28;20816;-75
2022/01/24 08:32:32;;;;;;;8.80;8.30;;;10.50;99.90;;;;;;5045751;28;20406;-75
2022/01/24 08:34:58;;;;;;;7.80;7.23;;;11.00;99.90;;;;;;5034508;28;20851;-75
2022/01/24 08:37:24;;;;;;;7.60;7.10;;;11.40;99.30;;;;;;5053214;28;20236;-75
2022/01/24 08:39:50;;;;;;;6.77;6.27;;;11.60;98.60;;;;;;5042748;28;20436;-75
2022/01/24 08:42:23;;;;;;;7.17;6.70;;;11.90;98.30;;;;;;5033326;28;20488;-75
2022/01/24 08:47:32;;;;;;;7.93;7.23;;;12.40;98.70;;;;;;5033196;28;20448;-75
2022/01/24 08:49:58;;;;;;;7.43;6.80;;;12.70;96.80;;;;;;5032342;28;20905;-76
2022/01/24 08:52:27;;;;;;;6.90;6.40;;;12.90;95.30;;;;;;5037561;28;20775;-75
2022/01/24 08:54:53;;;;;;;6.83;6.33;;;13.10;93.40;;;;;;5050081;28;20437;-75
2022/01/24 08:57:25;;;;;;;6.90;6.50;;;12.90;92.80;;;;;;5033030;28;20496;-76
2022/01/24 08:59:54;;;;;;;7.33;6.83;;;13.00;93.70;;;;;;5032367;28;20925;-75
2022/01/24 09:02:22;;;;;;;7.30;6.80;;;12.80;91.70;;;;;;5032897;28;20774;-76
2022/01/24 09:04:48;;;;;;;7.07;6.57;;;12.60;94.10;;;;;;5035582;28;20909;-72
2022/01/24 09:07:16;;;;;;;8.10;7.60;;;12.80;92.70;;;;;;5037922;28;20844;-72
2022/01/24 09:09:42;;;;;;;7.37;6.57;;;12.60;90.70;;;;;;5044093;28;20496;-75
2022/01/24 09:12:11;;;;;;;7.73;7.23;;;12.40;90.20;;;;;;5037857;28;20436;-72
2022/01/24 09:14:43;;;;;;;7.20;6.80;;;12.00;90.40;;;;;;5040666;28;20774;-72
2022/01/24 09:17:12;;;;;;;7.03;6.53;;;11.60;91.00;;;;;;5046634;28;20431;-72
2022/01/24 09:19:38;;;;;;;6.87;6.40;;;11.30;91.60;;;;;;5041388;28;20444;-72
2022/01/24 09:22:05;;;;;;;7.40;6.70;;;11.00;92.20;;;;;;5044890;28;20549;-72
2022/01/24 09:24:31;;;;;;;8.40;7.63;;;10.80;92.60;;;;;;5036834;28;20439;-72
2022/01/24 09:26:56;;;;;;;7.30;6.80;;;10.60;93.20;;;;;;5032075;28;20454;-72
2022/01/24 09:29:22;;;;;;;7.27;6.57;;;10.40;93.70;;;;;;5035483;28;20447;-72
2022/01/24 09:31:48;;;;;;;7.93;7.30;;;10.20;94.00;;;;;;5049362;28;20204;-73
2022/01/24 09:34:14;;;;;;;7.33;6.73;;;10.10;94.30;;;;;;5038988;28;20262;-72
2022/01/24 09:36:39;;;;;;;7.97;7.27;;;10.00;94.70;;;;;;5035897;28;20180;-72
2022/01/24 09:39:05;;;;;;;6.70;6.20;;;9.80;95.70;;;;;;5043440;28;20487;-72
2022/01/24 09:41:31;;;;;;;7.70;7.10;;;9.70;96.20;;;;;;5034209;28;20230;-72
2022/01/24 09:43:57;;;;;;;7.37;6.77;;;9.30;96.60;;;;;;5045726;28;20199;-73
2022/01/24 09:46:22;;;;;;;6.73;6.30;;;9.20;97.60;;;;;;5034741;28;20457;-71
2022/01/24 09:48:48;;;;;;;5.93;5.50;;;9.10;97.70;;;;;;5026495;28;20649;-72
2022/01/24 09:51:14;;;;;;;7.40;6.70;;;9.10;97.90;;;;;;5043743;28;20178;-71
2022/01/24 09:53:40;;;;;;;8.03;7.23;;;9.10;98.10;;;;;;5034201;28;20456;-72
2022/01/24 09:56:07;;;;;;;6.90;6.40;;;9.10;98.00;;;;;;5031443;28;20437;-71
2022/01/24 09:58:35;;;;;;;7.03;6.40;;;9.10;98.20;;;;;;5048296;28;20536;-71
2022/01/24 10:01:04;;;;;;;7.33;6.63;;;9.00;98.30;;;;;;5046336;28;20943;-72
2022/01/24 10:03:30;;;;;;;8.47;7.67;;;9.00;98.30;;;;;;5031798;28;20420;-72
2022/01/24 10:05:57;;;;;;;7.17;6.50;;;9.00;98.40;;;;;;5031006;28;20417;-72
2022/01/24 10:08:25;;;;;;;7.80;7.17;;;9.00;98.60;;;;;;5032050;28;20250;-72
2022/01/24 10:10:53;;;;;;;8.00;7.40;;;8.90;98.70;;;;;;5031523;28;20504;-72
2022/01/24 10:16:55;;;;;;;7.10;6.50;;;8.90;98.50;;;;;;5031359;28;20755;-72
2022/01/24 10:19:13;;;;;;;8.10;7.40;;;8.80;98.70;;;;;;5028683;28;20428;-72
2022/01/24 10:21:46;;;;;;;8.00;7.37;;;8.80;98.40;;;;;;5032253;28;20452;-72
2022/01/24 10:24:33;;;;;;;7.73;7.13;;;8.70;98.70;;;;;;5014739;28;20790;-71
2022/01/24 10:27:15;;;;;;;7.50;6.90;;;8.70;99.00;;;;;;5014006;28;20864;-72
2022/01/24 10:29:47;;;;;;;8.40;7.70;;;8.70;98.90;;;;;;5032297;28;20824;-71
2022/01/24 10:32:42;;;;;;;7.50;7.00;;;8.70;98.90;;;;;;5014408;28;20768;-72
2022/01/24 10:35:37;;;;;;;7.60;7.10;;;8.70;99.10;;;;;;5031389;28;20422;-72
2022/01/24 10:41:28;;;;;;;7.53;6.93;;;8.70;99.20;;;;;;5034913;28;20474;-71
2022/01/24 10:43:57;;;;;;;7.30;6.70;;;8.70;99.40;;;;;;5042895;28;20423;-71
2022/01/24 10:46:25;;;;;;;6.97;6.33;;;8.70;99.70;;;;;;5035900;28;20539;-72
2022/01/24 10:49:04;;;;;;;8.10;6.90;;;8.70;99.30;;;;;;5045364;28;20456;-72
2022/01/24 10:51:37;;;;;;;7.90;7.20;;;8.70;99.20;;;;;;5000808;28;20432;-71
2022/01/24 10:54:03;;;;;;;8.00;7.30;;;8.70;99.30;;;;;;5039857;28;20762;-71
2022/01/24 10:56:33;;;;;;;7.87;6.90;;;8.50;99.40;;;;;;5050887;28;20416;-71
2022/01/24 10:59:15;;;;;;;8.60;7.80;;;8.50;99.80;;;;;;5046064;28;20395;-71
2022/01/24 11:01:43;;;;;;;7.63;6.83;;;8.50;99.90;;;;;;5042369;28;20409;-71
2022/01/24 11:04:13;;;;;;;7.77;7.07;;;8.60;99.90;;;;;;5054037;28;20407;-71
2022/01/24 11:06:41;;;;;;;7.63;7.03;;;8.60;99.80;;;;;;5039090;28;20444;-71
2022/01/24 11:09:19;;;;;;;7.40;6.73;;;8.60;99.80;;;;;;5019021;28;20448;-72
2022/01/24 11:11:46;;;;;;;7.87;7.33;;;8.70;99.70;;;;;;5035228;28;20428;-71
2022/01/24 11:14:16;;;;;;;7.97;7.37;;;8.70;99.70;;;;;;5039234;28;20430;-73
2022/01/24 11:16:43;;;;;;;7.67;7.10;;;8.70;99.60;;;;;;5034819;28;20449;-72
2022/01/24 11:19:16;;;;;;;7.13;6.63;;;8.80;99.30;;;;;;5053684;28;20879;-71
2022/01/24 11:21:44;;;;;;;7.47;6.87;;;8.80;99.10;;;;;;5052303;28;20952;-72
2022/01/24 11:24:16;;;;;;;7.23;6.63;;;8.70;99.30;;;;;;5053558;28;20423;-72
2022/01/24 11:26:43;;;;;;;7.13;6.53;;;8.40;99.20;;;;;;5054845;28;20527;-71
2022/01/24 11:29:09;;;;;;;6.97;6.47;;;8.70;99.30;;;;;;5053585;28;20439;-72
2022/01/24 11:31:43;;;;;;;8.10;7.30;;;8.70;99.30;;;;;;5054442;28;20479;-71
2022/01/24 11:34:18;;;;;;;7.10;6.50;;;8.70;99.30;;;;;;5053302;28;20444;-71
2022/01/24 11:36:45;;;;;;;6.90;6.20;;;8.70;99.30;;;;;;5039189;28;20421;-71
2022/01/24 11:39:11;;;;;;;8.07;7.27;;;8.70;99.00;;;;;;5033843;28;20452;-71
2022/01/24 11:41:39;;;;;;;6.97;6.47;;;8.60;99.60;;;;;;5041448;28;20420;-72
2022/01/24 11:44:11;;;;;;;6.77;6.27;;;8.30;99.90;;;;;;5053325;28;20446;-72
2022/01/24 11:46:47;;;;;;;6.70;6.10;;;8.30;99.90;;;;;;5034678;28;20775;-71
2022/01/24 11:49:15;;;;;;;7.43;6.77;;;8.30;99.60;;;;;;5033612;28;20401;-71
2022/01/24 11:51:42;;;;;;;7.70;7.10;;;8.30;99.90;;;;;;5037265;28;20428;-73
2022/01/24 11:57:33;;;;;;;7.70;7.00;;;8.40;99.90;;;;;;5032865;28;20851;-72
2022/01/24 12:00:02;;;;;;;6.97;6.47;;;8.30;99.90;;;;;;5032481;28;20512;-72
2022/01/24 12:02:30;;;;;;;8.00;7.27;;;8.30;99.90;;;;;;5032685;28;20785;-72
2022/01/24 12:05:00;;;;;;;7.40;6.80;;;8.40;99.90;;;;;;5027235;28;20425;-72
2022/01/24 12:07:39;;;;;;;6.80;6.30;;;8.50;99.90;;;;;;5033198;28;20539;-71
2022/01/24 12:10:23;;;;;;;9.97;8.17;;;8.50;99.80;;;;;;5014109;28;20539;-72
2022/01/24 12:12:51;;;;;;;8.37;7.67;;;8.60;99.90;;;;;;5032366;28;20413;-75
2022/01/24 12:15:41;;;;;;;8.47;7.67;;;8.60;99.80;;;;;;5036114;28;20433;-72
2022/01/24 12:18:16;;;;;;;8.30;7.50;;;8.70;99.70;;;;;;5014937;28;20527;-71
2022/01/24 12:20:42;;;;;;;8.13;7.53;;;8.70;99.90;;;;;;5037344;28;20464;-72
2022/01/24 12:23:19;;;;;;;7.93;7.13;;;8.60;99.60;;;;;;5033344;28;20397;-71
2022/01/24 12:25:56;;;;;;;9.27;8.67;;;9.00;99.90;;;;;;5040954;28;20219;-71
2022/01/24 12:28:27;;;;;;;8.00;7.30;;;8.70;99.60;;;;;;5035717;28;20864;-72
2022/01/24 12:31:08;;;;;;;8.67;7.93;;;8.60;99.50;;;;;;5052638;28;20440;-72
2022/01/24 12:33:54;;;;;;;7.20;6.60;;;8.40;99.50;;;;;;5053291;28;20748;-71
2022/01/24 12:36:47;;;;;;;7.97;7.30;;;8.30;99.70;;;;;;5052954;28;20963;-72
2022/01/24 12:39:37;;;;;;;8.57;7.87;;;8.30;99.90;;;;;;5029955;28;20512;-73
2022/01/24 12:42:19;;;;;;;8.33;7.53;;;8.30;99.90;;;;;;5033323;28;20888;-72
2022/01/24 12:47:21;;;;;;;7.90;6.70;;;8.40;99.90;;;;;;5039775;28;20459;-72
2022/01/24 12:49:50;;;;;;;6.93;6.40;;;8.20;99.90;;;;;;5052875;28;20414;-71
2022/01/24 12:52:18;;;;;;;8.10;7.40;;;8.30;99.90;;;;;;5040417;28;20462;-72
2022/01/24 12:54:50;;;;;;;8.03;7.23;;;8.30;99.90;;;;;;5017009;28;20878;-72
2022/01/24 12:57:19;;;;;;;8.67;7.80;;;8.30;99.90;;;;;;5013214;28;20432;-72
2022/01/24 13:00:09;;;;;;;8.00;7.30;;;8.20;99.90;;;;;;5030555;28;20503;-72
2022/01/24 13:02:38;;;;;;;7.60;6.97;;;8.20;99.90;;;;;;5043678;28;20408;-72
2022/01/24 13:05:09;;;;;;;8.20;7.40;;;8.20;99.90;;;;;;5031417;28;20924;-71
2022/01/24 13:07:37;;;;;;;7.53;6.83;;;8.20;99.90;;;;;;5032003;28;20481;-72
2022/01/24 13:10:14;;;;;;;7.83;7.07;;;8.10;99.90;;;;;;5032325;28;20436;-72
2022/01/24 13:12:42;;;;;;;7.73;7.03;;;8.10;99.90;;;;;;5052107;28;20396;-72
2022/01/24 13:15:23;;;;;;;7.70;6.93;;;8.20;99.90;;;;;;5033200;28;20423;-72
2022/01/24 13:23:26;;;;;;;9.50;8.60;;;8.10;99.90;;;;;;5039519;28;20394;-72
2022/01/24 13:25:51;;;;;;;7.60;6.90;;;8.20;99.90;;;;;;5019593;28;20508;-71
2022/01/24 13:28:19;;;;;;;9.93;9.13;;;8.30;99.90;;;;;;5014215;28;20562;-71
2022/01/24 13:31:03;;;;;;;7.40;6.70;;;8.30;99.90;;;;;;5014814;28;20178;-71
2022/01/24 13:33:34;;;;;;;7.53;6.90;;;8.30;99.90;;;;;;5032623;28;20405;-71
2022/01/24 13:36:05;;;;;;;8.13;7.43;;;8.30;99.90;;;;;;5032856;28;20512;-72
2022/01/24 13:38:34;;;;;;;9.23;8.00;;;8.40;99.90;;;;;;5041601;28;20511;-72
2022/01/24 13:41:12;;;;;;;7.87;7.17;;;8.50;99.90;;;;;;5050936;28;20440;-71
2022/01/24 13:43:47;;;;;;;8.10;7.50;;;8.50;99.90;;;;;;5052507;28;20412;-72
2022/01/24 13:46:25;;;;;;;8.83;8.13;;;8.50;99.90;;;;;;5051588;28;20514;-72
2022/01/24 13:48:56;;;;;;;9.00;8.10;;;8.30;99.90;;;;;;5035663;28;20443;-71
2022/01/24 13:51:38;;;;;;;7.00;6.50;;;8.60;99.90;;;;;;5032898;28;20425;-71
2022/01/24 13:54:09;;;;;;;12.67;8.30;;;8.60;99.90;;;;;;5014357;28;20429;-72
2022/01/24 13:56:41;;;;;;;8.30;7.60;;;8.60;99.80;;;;;;5032512;28;20497;-72
2022/01/24 13:59:11;;;;;;;7.70;7.10;;;8.60;99.60;;;;;;5031469;28;21022;-71
2022/01/24 14:01:39;;;;;;;9.43;8.53;;;8.50;99.80;;;;;;5034998;28;20432;-72
2022/01/24 14:04:08;;;;;;;8.90;8.10;;;8.70;99.90;;;;;;5036870;28;20435;-72
2022/01/24 14:06:38;;;;;;;9.47;8.77;;;8.30;99.90;;;;;;5051330;28;20456;-71
2022/01/24 14:09:15;;;;;;;8.57;7.77;;;8.50;99.90;;;;;;5038460;28;20428;-72
2022/01/24 14:11:47;;;;;;;10.63;9.93;;;8.10;99.90;;;;;;5030992;28;20831;-72
2022/01/24 14:14:20;;;;;;;8.50;7.73;;;8.80;99.90;;;;;;5055182;28;20419;-72
2022/01/24 14:17:01;;;;;;;9.87;9.17;;;8.60;99.90;;;;;;5038229;28;20400;-72
2022/01/24 14:19:32;;;;;;;9.13;7.53;;;8.60;99.90;;;;;;5037725;28;20770;-71
2022/01/24 14:22:06;;;;;;;9.57;8.90;;;8.70;99.90;;;;;;5039192;28;20472;-75
2022/01/24 14:25:01;;;;;;;9.20;8.60;;;8.80;99.80;;;;;;5055483;28;20443;-71
2022/01/24 14:27:48;;;;;;;8.37;7.43;;;8.80;99.60;;;;;;5016551;28;20563;-71
2022/01/24 14:30:15;;;;;;;8.20;7.40;;;8.80;99.60;;;;;;5020076;28;20510;-71
2022/01/24 14:32:58;;;;;;;24.93;18.87;;;8.70;99.50;;;;;;5037304;28;20424;-71
2022/01/24 14:35:24;;;;;;;329.43;176.00;;;8.80;99.90;;;;;;5010922;28;20424;-71
2022/01/24 14:37:54;;;;;;;47.43;35.63;;;8.70;99.90;;;;;;5017489;28;20428;-71
2022/01/24 14:40:46;;;;;;;9.23;8.43;;;8.80;99.60;;;;;;5034457;28;20480;-71
2022/01/24 14:46:07;;;;;;;9.80;8.93;;;8.50;99.90;;;;;;5034443;28;20400;-73
2022/01/24 14:48:42;;;;;;;9.70;9.00;;;8.40;99.90;;;;;;5035973;28;20795;-73
2022/01/24 14:51:07;;;;;;;12.60;11.40;;;8.90;99.90;;;;;;5053787;28;20416;-73
2022/01/24 14:53:34;;;;;;;10.47;9.63;;;9.30;99.90;;;;;;5055127;28;20423;-73
2022/01/24 14:56:00;;;;;;;10.30;9.47;;;9.90;99.90;;;;;;5043152;28;20272;-75
2022/01/24 14:58:26;;;;;;;9.23;8.50;;;10.30;99.90;;;;;;5000714;28;20426;-72
2022/01/24 15:00:52;;;;;;;8.33;7.73;;;10.50;99.90;;;;;;5025997;28;21072;-73